Time;durP1;ratioP1;P1;durP2;ratioP2;P2;SDS_P1;SDS_P2;PMS_P1;PMS_P2;Temp;Humidity;BMP_temperature;BMP_pressure;BME280_temperature;BME280_humidity;BME280_pressure;Samples;Min_cycle;Max_cycle;Signal;HPM_P1;HPM_P2
2023/01/25 00:01:51;;;;;;;;;;;27.30;99.90;;;;;;5092465;28;19916;-68
2023/01/25 00:04:21;;;;;;;;;;;27.20;99.90;;;;;;5093186;28;20489;-70
2023/01/25 00:06:48;;;;;;;;;;;27.10;99.90;;;;;;5092841;28;19908;-69
2023/01/25 00:09:15;;;;;;;;;;;27.00;99.90;;;;;;5092914;28;20440;-68
2023/01/25 00:11:43;;;;;;;;;;;26.80;99.90;;;;;;5093491;28;19961;-68
2023/01/25 00:14:10;;;;;;;;;;;26.80;99.90;;;;;;5093491;28;19958;-73
2023/01/25 00:16:37;;;;;;;;;;;26.90;99.90;;;;;;5093413;28;20320;-67
2023/01/25 00:19:04;;;;;;;;;;;27.00;99.90;;;;;;5092767;28;19912;-73
2023/01/25 00:21:32;;;;;;;;;;;27.30;99.90;;;;;;5090267;28;19916;-73
2023/01/25 00:23:59;;;;;;;;;;;27.50;99.90;;;;;;5092398;28;19913;-69
2023/01/25 00:26:29;;;;;;;;;;;27.70;99.90;;;;;;5092716;28;20471;-68
2023/01/25 00:28:55;;;;;;;;;;;27.80;99.90;;;;;;5092310;28;19960;-68
2023/01/25 00:31:28;;;;;;;;;;;28.00;99.90;;;;;;5093984;28;19915;-70
2023/01/25 00:34:17;;;;;;;;;;;28.10;99.90;;;;;;5094062;28;19916;-71
2023/01/25 00:36:44;;;;;;;;;;;28.30;99.90;;;;;;5088613;28;20307;-67
2023/01/25 00:39:12;;;;;;;;;;;28.40;99.90;;;;;;5094160;28;19909;-66
2023/01/25 00:41:39;;;;;;;;;;;28.60;99.90;;;;;;5094419;28;19965;-70
2023/01/25 00:44:06;;;;;;;;;;;28.50;99.90;;;;;;5093821;28;19923;-71
2023/01/25 00:46:32;;;;;;;;;;;28.50;99.90;;;;;;5093717;28;19917;-67
2023/01/25 00:48:59;;;;;;;;;;;28.70;99.70;;;;;;5094145;28;19909;-66
2023/01/25 00:51:26;;;;;;;;;;;28.50;99.90;;;;;;5093871;28;19911;-69
2023/01/25 00:53:52;;;;;;;;;;;28.70;99.50;;;;;;5094090;28;19954;-67
2023/01/25 00:56:19;;;;;;;;;;;28.70;99.30;;;;;;5094048;28;19908;-66
2023/01/25 00:58:45;;;;;;;;;;;28.60;99.30;;;;;;5093730;28;19908;-70
2023/01/25 01:01:12;;;;;;;;;;;28.50;99.60;;;;;;5093850;28;19947;-67
2023/01/25 01:03:39;;;;;;;;;;;28.60;99.40;;;;;;5093898;28;20353;-72
2023/01/25 01:06:09;;;;;;;;;;;28.60;99.50;;;;;;5093792;28;19912;-70
2023/01/25 01:08:39;;;;;;;;;;;28.80;99.50;;;;;;5091631;28;19912;-69
2023/01/25 01:11:08;;;;;;;;;;;29.20;99.40;;;;;;5079621;28;19916;-73
2023/01/25 01:13:34;;;;;;;;;;;29.40;98.30;;;;;;5086266;28;19973;-68
2023/01/25 01:16:02;;;;;;;;;;;29.00;98.20;;;;;;5091115;28;19943;-69
2023/01/25 01:18:35;;;;;;;;;;;28.90;99.00;;;;;;5091700;28;19946;-67
2023/01/25 01:21:02;;;;;;;;;;;28.70;99.30;;;;;;5091682;28;19948;-70
2023/01/25 01:23:29;;;;;;;;;;;28.50;98.60;;;;;;5090443;28;19922;-71
2023/01/25 01:25:58;;;;;;;;;;;28.50;98.60;;;;;;5091371;28;20308;-68
2023/01/25 01:28:25;;;;;;;;;;;28.40;98.60;;;;;;5088291;28;19965;-71
2023/01/25 01:30:51;;;;;;;;;;;28.50;98.40;;;;;;5088942;28;19908;-71
2023/01/25 01:33:18;;;;;;;;;;;28.60;99.00;;;;;;5090699;28;20329;-71
2023/01/25 01:35:46;;;;;;;;;;;28.60;98.90;;;;;;5088701;28;19928;-71
2023/01/25 01:38:13;;;;;;;;;;;28.80;99.60;;;;;;5090858;28;19918;-72
2023/01/25 01:40:43;;;;;;;;;;;29.00;98.70;;;;;;5090521;28;19951;-72
2023/01/25 01:43:29;;;;;;;;;;;29.00;98.30;;;;;;5090599;28;19920;-71
2023/01/25 01:45:58;;;;;;;;;;;29.00;98.40;;;;;;5090077;28;19908;-68
2023/01/25 01:48:34;;;;;;;;;;;29.10;98.50;;;;;;5068668;28;19939;-73
2023/01/25 01:51:04;;;;;;;;;;;29.20;98.50;;;;;;5089345;28;19904;-69
2023/01/25 01:53:32;;;;;;;;;;;29.40;98.30;;;;;;5087501;28;19909;-73
2023/01/25 01:56:01;;;;;;;;;;;29.90;97.40;;;;;;5089663;28;19951;-71
2023/01/25 01:58:30;;;;;;;;;;;29.90;96.90;;;;;;5089818;28;19908;-70
2023/01/25 02:00:57;;;;;;;;;;;29.90;97.60;;;;;;5088742;28;20025;-69
2023/01/25 02:03:24;;;;;;;;;;;29.80;97.20;;;;;;5088788;28;19916;-67
2023/01/25 02:05:57;;;;;;;;;;;29.60;97.40;;;;;;5087874;28;19947;-72
2023/01/25 02:08:24;;;;;;;;;;;29.10;98.10;;;;;;5091159;28;19908;-72
2023/01/25 02:10:51;;;;;;;;;;;29.00;98.70;;;;;;5087831;28;20331;-73
2023/01/25 02:13:18;;;;;;;;;;;28.90;98.40;;;;;;5089145;28;19908;-70
2023/01/25 02:15:49;;;;;;;;;;;29.20;99.00;;;;;;5090801;28;20233;-70
2023/01/25 02:18:18;;;;;;;;;;;29.20;98.20;;;;;;5088254;28;19909;-73
2023/01/25 02:20:46;;;;;;;;;;;29.00;98.10;;;;;;5084403;28;19923;-71
2023/01/25 02:23:18;;;;;;;;;;;28.90;98.80;;;;;;5088780;28;19927;-69
2023/01/25 02:25:45;;;;;;;;;;;28.80;98.70;;;;;;5094656;28;19916;-70
2023/01/25 02:28:15;;;;;;;;;;;28.90;98.80;;;;;;5087899;28;20003;-69
2023/01/25 02:30:42;;;;;;;;;;;29.20;98.60;;;;;;5093422;28;19966;-70
2023/01/25 02:33:09;;;;;;;;;;;29.10;98.60;;;;;;5092793;28;19953;-67
2023/01/25 02:36:01;;;;;;;;;;;29.70;98.30;;;;;;5091827;28;19935;-72
2023/01/25 02:38:29;;;;;;;;;;;30.10;98.30;;;;;;5075965;28;19908;-67
2023/01/25 02:40:58;;;;;;;;;;;30.60;96.90;;;;;;5094136;28;19920;-69
2023/01/25 02:43:28;;;;;;;;;;;30.90;96.20;;;;;;5093837;28;19927;-68
2023/01/25 02:45:59;;;;;;;;;;;31.30;95.80;;;;;;5086170;28;20375;-69
2023/01/25 02:48:26;;;;;;;;;;;31.40;95.70;;;;;;5085121;28;19934;-67
2023/01/25 02:50:53;;;;;;;;;;;31.50;95.20;;;;;;5086611;28;20007;-68
2023/01/25 02:53:19;;;;;;;;;;;31.40;95.00;;;;;;5086284;28;19935;-68
2023/01/25 02:55:46;;;;;;;;;;;31.50;94.50;;;;;;5090984;28;19916;-71
2023/01/25 02:58:13;;;;;;;;;;;31.40;94.70;;;;;;5091494;28;19908;-67
2023/01/25 03:00:39;;;;;;;;;;;31.60;94.30;;;;;;5082508;28;19916;-71
2023/01/25 03:03:06;;;;;;;;;;;31.60;95.30;;;;;;5086769;28;20820;-70
2023/01/25 03:05:33;;;;;;;;;;;30.80;94.80;;;;;;5087217;28;19916;-67
2023/01/25 03:07:59;;;;;;;;;;;30.00;96.30;;;;;;5092964;28;20416;-70
2023/01/25 03:10:26;;;;;;;;;;;30.10;96.50;;;;;;5091772;28;20438;-71
2023/01/25 03:12:53;;;;;;;;;;;30.60;96.30;;;;;;5088895;28;19908;-71
2023/01/25 03:15:19;;;;;;;;;;;31.50;94.60;;;;;;5093670;28;19908;-67
2023/01/25 03:17:46;;;;;;;;;;;32.20;95.00;;;;;;5091085;28;19913;-72
2023/01/25 03:20:12;;;;;;;;;;;33.30;93.20;;;;;;5090836;28;19907;-68
2023/01/25 03:22:39;;;;;;;;;;;33.90;92.00;;;;;;5093786;28;19916;-67
2023/01/25 03:25:06;;;;;;;;;;;34.00;91.20;;;;;;5092989;28;19912;-67
2023/01/25 03:27:32;;;;;;;;;;;34.50;90.80;;;;;;5094284;28;20431;-67
2023/01/25 03:29:59;;;;;;;;;;;35.00;90.40;;;;;;5093396;28;19955;-72
2023/01/25 03:32:26;;;;;;;;;;;34.90;90.10;;;;;;5094307;28;19970;-73
2023/01/25 03:34:52;;;;;;;;;;;35.80;88.40;;;;;;5087973;28;20360;-71
2023/01/25 03:37:19;;;;;;;;;;;36.40;88.20;;;;;;5092420;28;19955;-71
2023/01/25 03:39:46;;;;;;;;;;;37.80;84.90;;;;;;5090018;28;19908;-71
2023/01/25 03:42:12;;;;;;;;;;;37.60;82.90;;;;;;5092313;28;19919;-72
2023/01/25 03:44:39;;;;;;;;;;;37.40;84.60;;;;;;5092005;28;19916;-68
2023/01/25 03:47:05;;;;;;;;;;;36.80;84.40;;;;;;5079268;28;19916;-70
2023/01/25 03:49:32;;;;;;;;;;;37.20;82.70;;;;;;5090434;28;19912;-71
2023/01/25 03:51:59;;;;;;;;;;;36.40;83.60;;;;;;5085976;28;19913;-70
2023/01/25 03:54:25;;;;;;;;;;;35.00;87.30;;;;;;5082249;28;20000;-69
2023/01/25 03:56:52;;;;;;;;;;;34.60;88.80;;;;;;5093813;28;19908;-71
2023/01/25 03:59:18;;;;;;;;;;;35.20;87.30;;;;;;5093752;28;19931;-72
2023/01/25 04:01:45;;;;;;;;;;;36.10;84.90;;;;;;5087328;28;19920;-71
2023/01/25 04:04:12;;;;;;;;;;;36.20;83.40;;;;;;5094483;28;19923;-68
2023/01/25 04:06:39;;;;;;;;;;;36.50;82.70;;;;;;5093199;28;19916;-71
2023/01/25 04:09:06;;;;;;;;;;;36.80;83.10;;;;;;5093041;28;19912;-68
2023/01/25 04:11:33;;;;;;;;;;;37.60;80.00;;;;;;5093496;28;19912;-70
2023/01/25 04:13:59;;;;;;;;;;;37.10;80.90;;;;;;5093697;28;19908;-70
2023/01/25 04:16:26;;;;;;;;;;;37.20;80.20;;;;;;5093424;28;19914;-71
2023/01/25 04:18:53;;;;;;;;;;;37.60;78.60;;;;;;5091660;28;19919;-71
2023/01/25 04:21:20;;;;;;;;;;;36.70;80.10;;;;;;5085819;28;20011;-70
2023/01/25 04:23:46;;;;;;;;;;;36.00;81.40;;;;;;5088220;28;19966;-72
2023/01/25 04:26:13;;;;;;;;;;;36.80;81.10;;;;;;5093236;28;19908;-72
2023/01/25 04:28:40;;;;;;;;;;;38.00;79.70;;;;;;5092617;28;19930;-69
2023/01/25 04:31:06;;;;;;;;;;;39.10;77.00;;;;;;5093405;28;20347;-69
2023/01/25 04:33:33;;;;;;;;;;;39.20;76.90;;;;;;5092670;28;19912;-72
2023/01/25 04:36:00;;;;;;;;;;;39.30;75.30;;;;;;5092606;28;20265;-67
2023/01/25 04:38:26;;;;;;;;;;;39.80;74.20;;;;;;5092833;28;19912;-69
2023/01/25 04:40:53;;;;;;;;;;;39.00;74.70;;;;;;5087242;28;19959;-72
2023/01/25 04:43:20;;;;;;;;;;;37.70;77.50;;;;;;5083956;28;19920;-69
2023/01/25 04:45:47;;;;;;;;;;;37.60;77.40;;;;;;5074846;28;19913;-70
2023/01/25 04:48:14;;;;;;;;;;;37.80;78.90;;;;;;5074956;28;19973;-69
2023/01/25 04:50:42;;;;;;;;;;;38.00;76.80;;;;;;5091444;28;19908;-73
2023/01/25 04:53:09;;;;;;;;;;;37.00;78.60;;;;;;5084223;28;19912;-71
2023/01/25 04:55:36;;;;;;;;;;;36.60;78.30;;;;;;5091672;28;20482;-73
2023/01/25 04:58:03;;;;;;;;;;;36.70;77.60;;;;;;5090869;28;19908;-72
2023/01/25 05:00:30;;;;;;;;;;;36.90;77.30;;;;;;5091714;28;19915;-72
2023/01/25 05:02:56;;;;;;;;;;;37.00;77.50;;;;;;5085174;28;19928;-69
2023/01/25 05:05:23;;;;;;;;;;;36.40;78.80;;;;;;5091663;28;19947;-68
2023/01/25 05:07:50;;;;;;;;;;;37.20;78.20;;;;;;5091277;28;19912;-67
2023/01/25 05:10:16;;;;;;;;;;;38.20;75.40;;;;;;5091868;28;19916;-73
2023/01/25 05:12:43;;;;;;;;;;;37.50;76.50;;;;;;5077005;28;20373;-75
2023/01/25 05:15:10;;;;;;;;;;;37.80;76.30;;;;;;5090928;28;19912;-72
2023/01/25 05:17:36;;;;;;;;;;;36.50;78.50;;;;;;5087587;28;19913;-70
2023/01/25 05:20:03;;;;;;;;;;;37.40;77.10;;;;;;5092010;28;19915;-73
2023/01/25 05:22:30;;;;;;;;;;;37.60;77.20;;;;;;5076556;28;20400;-73
2023/01/25 05:24:58;;;;;;;;;;;37.90;77.20;;;;;;5089291;28;19908;-73
2023/01/25 05:27:24;;;;;;;;;;;37.70;76.60;;;;;;5090866;28;19961;-74
2023/01/25 05:29:51;;;;;;;;;;;38.50;76.20;;;;;;5089308;28;19912;-73
2023/01/25 05:32:19;;;;;;;;;;;39.10;74.10;;;;;;5088212;28;19962;-70
2023/01/25 05:34:46;;;;;;;;;;;39.60;74.20;;;;;;5085438;28;19920;-71
2023/01/25 05:37:15;;;;;;;;;;;40.90;71.70;;;;;;5090324;28;20576;-69
2023/01/25 05:39:41;;;;;;;;;;;39.50;71.10;;;;;;5081498;28;20004;-71
2023/01/25 05:42:12;;;;;;;;;;;37.50;74.70;;;;;;5088428;28;19957;-71
2023/01/25 05:44:39;;;;;;;;;;;36.90;76.00;;;;;;5086838;28;19999;-69
2023/01/25 05:47:06;;;;;;;;;;;36.40;75.80;;;;;;5091918;28;19934;-67
2023/01/25 05:49:33;;;;;;;;;;;36.60;77.20;;;;;;5092719;28;19995;-71
2023/01/25 05:51:59;;;;;;;;;;;36.90;76.00;;;;;;5091845;28;19908;-67
2023/01/25 05:54:26;;;;;;;;;;;38.00;76.00;;;;;;5076847;28;19909;-72
2023/01/25 05:56:52;;;;;;;;;;;39.50;73.50;;;;;;5078386;28;19912;-72
2023/01/25 05:59:19;;;;;;;;;;;39.40;72.70;;;;;;5090993;28;19912;-66
2023/01/25 06:01:46;;;;;;;;;;;39.20;72.30;;;;;;5083404;28;19966;-68
2023/01/25 06:04:14;;;;;;;;;;;39.50;74.30;;;;;;5071875;28;19974;-69
2023/01/25 06:06:40;;;;;;;;;;;40.30;71.40;;;;;;5073593;28;19909;-69
2023/01/25 06:09:07;;;;;;;;;;;39.90;70.80;;;;;;5091277;28;20002;-67
2023/01/25 06:11:34;;;;;;;;;;;39.00;72.10;;;;;;5089855;28;19999;-67
2023/01/25 06:14:00;;;;;;;;;;;38.00;74.70;;;;;;5090248;28;20420;-70
2023/01/25 06:16:27;;;;;;;;;;;37.90;74.90;;;;;;5083992;28;19913;-70
2023/01/25 06:18:53;;;;;;;;;;;37.50;74.60;;;;;;5077915;28;19912;-68
2023/01/25 06:21:20;;;;;;;;;;;37.40;75.00;;;;;;5085113;28;20254;-70
2023/01/25 06:23:47;;;;;;;;;;;36.80;75.60;;;;;;5071659;28;19916;-71
2023/01/25 06:26:14;;;;;;;;;;;36.40;75.70;;;;;;5071833;28;20388;-69
2023/01/25 06:28:41;;;;;;;;;;;35.90;77.40;;;;;;5072311;28;19910;-68
2023/01/25 06:31:17;;;;;;;;;;;35.80;77.50;;;;;;5089678;28;20001;-71
2023/01/25 06:33:47;;;;;;;;;;;35.10;77.40;;;;;;5075449;28;19913;-72
2023/01/25 06:36:14;;;;;;;;;;;34.20;79.90;;;;;;5071255;28;20026;-72
2023/01/25 06:38:41;;;;;;;;;;;33.50;81.10;;;;;;5070974;28;19915;-72
2023/01/25 06:41:10;;;;;;;;;;;32.60;83.80;;;;;;5071081;28;19916;-67
2023/01/25 06:43:37;;;;;;;;;;;32.30;85.20;;;;;;5071187;28;19967;-72
2023/01/25 06:46:04;;;;;;;;;;;32.00;85.40;;;;;;5084649;28;20368;-72
2023/01/25 06:48:31;;;;;;;;;;;31.60;87.20;;;;;;5083561;28;19909;-70
2023/01/25 06:50:59;;;;;;;;;;;30.90;88.30;;;;;;5073831;28;20053;-69
2023/01/25 06:53:26;;;;;;;;;;;30.60;90.20;;;;;;5071587;28;19912;-69
2023/01/25 06:55:57;;;;;;;;;;;30.60;90.70;;;;;;5071321;28;19916;-71
2023/01/25 06:58:24;;;;;;;;;;;30.40;90.90;;;;;;5070714;28;19913;-67
2023/01/25 07:00:51;;;;;;;;;;;30.20;91.30;;;;;;5079140;28;20292;-68
2023/01/25 07:03:18;;;;;;;;;;;30.00;91.40;;;;;;5090170;28;20594;-68
2023/01/25 07:05:45;;;;;;;;;;;30.00;91.90;;;;;;5088947;28;19908;-70
2023/01/25 07:08:11;;;;;;;;;;;30.10;91.90;;;;;;5085375;28;19995;-68
2023/01/25 07:10:38;;;;;;;;;;;29.90;92.60;;;;;;5073894;28;20239;-67
2023/01/25 07:13:05;;;;;;;;;;;29.40;92.40;;;;;;5075097;28;19955;-67
2023/01/25 07:15:31;;;;;;;;;;;29.30;93.00;;;;;;5075119;28;19962;-71
2023/01/25 07:17:58;;;;;;;;;;;29.10;93.30;;;;;;5074884;28;19950;-67
2023/01/25 07:20:25;;;;;;;;;;;29.00;93.50;;;;;;5075455;28;20354;-68
2023/01/25 07:22:51;;;;;;;;;;;29.10;93.60;;;;;;5074615;28;20274;-69
2023/01/25 07:25:18;;;;;;;;;;;28.90;93.60;;;;;;5081472;28;19909;-68
2023/01/25 07:27:44;;;;;;;;;;;28.70;94.10;;;;;;5088338;28;19914;-69
2023/01/25 07:30:11;;;;;;;;;;;28.50;94.30;;;;;;5089546;28;19934;-65
2023/01/25 07:32:38;;;;;;;;;;;28.40;94.70;;;;;;5084291;28;20021;-66
2023/01/25 07:35:05;;;;;;;;;;;28.30;94.90;;;;;;5084531;28;19924;-67
2023/01/25 07:37:33;;;;;;;;;;;28.60;94.90;;;;;;5073959;28;19920;-67
2023/01/25 07:39:59;;;;;;;;;;;28.50;94.70;;;;;;5081757;28;19912;-66
2023/01/25 07:42:26;;;;;;;;;;;28.40;94.90;;;;;;5093616;28;19931;-66
2023/01/25 07:44:53;;;;;;;;;;;28.40;94.90;;;;;;5085781;28;19916;-65
2023/01/25 07:47:19;;;;;;;;;;;28.30;95.10;;;;;;5101254;28;19913;-65
2023/01/25 07:49:46;;;;;;;;;;;28.20;95.30;;;;;;5086428;28;20018;-65
2023/01/25 07:52:13;;;;;;;;;;;28.00;95.40;;;;;;5092705;28;19920;-64
2023/01/25 07:54:39;;;;;;;;;;;28.00;95.40;;;;;;5090116;28;19915;-64
2023/01/25 07:57:06;;;;;;;;;;;27.80;95.90;;;;;;5075861;28;19990;-65
2023/01/25 07:59:32;;;;;;;;;;;27.70;96.20;;;;;;5090708;28;19916;-65
2023/01/25 08:01:59;;;;;;;;;;;27.70;96.70;;;;;;5093747;28;19908;-66
2023/01/25 08:04:26;;;;;;;;;;;27.50;96.90;;;;;;5084555;28;19923;-64
2023/01/25 08:06:52;;;;;;;;;;;27.30;97.20;;;;;;5073640;28;19927;-66
2023/01/25 08:09:19;;;;;;;;;;;27.00;97.80;;;;;;5073686;28;19920;-64
2023/01/25 08:11:48;;;;;;;;;;;26.90;98.10;;;;;;5081035;28;19913;-65
2023/01/25 08:14:14;;;;;;;;;;;26.80;98.40;;;;;;5093532;28;19923;-65
2023/01/25 08:16:41;;;;;;;;;;;26.70;98.80;;;;;;5073599;28;19941;-66
2023/01/25 08:19:09;;;;;;;;;;;26.60;99.20;;;;;;5073640;28;19951;-66
2023/01/25 08:21:36;;;;;;;;;;;26.60;99.30;;;;;;5072923;28;20019;-65
2023/01/25 08:24:05;;;;;;;;;;;26.50;99.50;;;;;;5078756;28;20308;-64
2023/01/25 08:26:32;;;;;;;;;;;26.40;99.90;;;;;;5074874;28;19965;-65
2023/01/25 08:28:58;;;;;;;;;;;26.30;99.90;;;;;;5073401;28;19912;-65
2023/01/25 08:31:27;;;;;;;;;;;26.30;99.90;;;;;;5073578;28;20353;-65
2023/01/25 08:33:53;;;;;;;;;;;26.20;99.90;;;;;;5073024;28;19999;-65
2023/01/25 08:36:22;;;;;;;;;;;26.30;99.90;;;;;;5073737;28;19917;-64
2023/01/25 08:38:53;;;;;;;;;;;26.20;99.90;;;;;;5083648;28;19957;-65
2023/01/25 08:41:19;;;;;;;;;;;26.10;99.90;;;;;;5093297;28;19956;-65
2023/01/25 08:43:51;;;;;;;;;;;26.10;99.90;;;;;;5090069;28;20145;-67
2023/01/25 08:46:17;;;;;;;;;;;26.00;99.90;;;;;;5084023;28;20380;-66
2023/01/25 08:48:44;;;;;;;;;;;25.90;99.90;;;;;;5081630;28;20410;-65
2023/01/25 08:51:12;;;;;;;;;;;25.70;99.90;;;;;;5091703;28;19974;-65
2023/01/25 08:53:38;;;;;;;;;;;25.60;99.90;;;;;;5090701;28;20376;-65
2023/01/25 08:56:10;;;;;;;;;;;25.60;99.90;;;;;;5073146;28;19959;-65
2023/01/25 08:58:37;;;;;;;;;;;25.60;99.90;;;;;;5077946;28;19908;-65
2023/01/25 09:01:05;;;;;;;;;;;25.60;99.90;;;;;;5072959;28;19912;-66
2023/01/25 09:03:35;;;;;;;;;;;25.60;99.90;;;;;;5072469;28;19917;-65
2023/01/25 09:06:02;;;;;;;;;;;25.60;99.90;;;;;;5071899;28;19912;-65
2023/01/25 09:08:29;;;;;;;;;;;25.50;99.90;;;;;;5087425;28;20427;-65
2023/01/25 09:10:59;;;;;;;;;;;25.50;99.90;;;;;;5092742;28;19908;-64
2023/01/25 09:13:26;;;;;;;;;;;25.50;99.90;;;;;;5092028;28;19955;-64
2023/01/25 09:15:58;;;;;;;;;;;25.40;99.90;;;;;;5090911;28;19909;-66
2023/01/25 09:18:25;;;;;;;;;;;25.40;99.90;;;;;;5076809;28;19970;-64
2023/01/25 09:20:51;;;;;;;;;;;25.40;99.90;;;;;;5070690;28;19912;-65
2023/01/25 09:23:21;;;;;;;;;;;25.40;99.90;;;;;;5075202;28;19916;-65
2023/01/25 09:25:48;;;;;;;;;;;25.40;99.90;;;;;;5078766;28;19938;-64
2023/01/25 09:28:14;;;;;;;;;;;25.40;99.90;;;;;;5075713;28;19962;-65
2023/01/25 09:30:41;;;;;;;;;;;25.30;99.90;;;;;;5072317;28;20297;-65
2023/01/25 09:33:08;;;;;;;;;;;25.30;99.90;;;;;;5072046;28;20353;-64
2023/01/25 09:35:36;;;;;;;;;;;25.20;99.90;;;;;;5072373;28;19927;-66
2023/01/25 09:38:02;;;;;;;;;;;25.20;99.90;;;;;;5077432;28;19917;-66
2023/01/25 09:40:33;;;;;;;;;;;25.20;99.90;;;;;;5072119;28;20377;-64
2023/01/25 09:43:04;;;;;;;;;;;25.30;99.90;;;;;;5077574;28;19922;-66
2023/01/25 09:45:31;;;;;;;;;;;25.30;99.90;;;;;;5092133;28;20333;-65
2023/01/25 09:48:04;;;;;;;;;;;25.20;99.90;;;;;;5082024;28;20288;-65
2023/01/25 09:50:34;;;;;;;;;;;25.20;99.90;;;;;;5071718;28;19943;-66
2023/01/25 09:53:09;;;;;;;;;;;25.20;99.90;;;;;;5071826;28;19991;-66
2023/01/25 09:55:37;;;;;;;;;;;25.20;99.90;;;;;;5091465;28;19908;-65
2023/01/25 09:58:04;;;;;;;;;;;25.10;99.90;;;;;;5086291;28;19912;-64
2023/01/25 10:00:32;;;;;;;;;;;25.00;99.90;;;;;;5091679;28;19916;-65
2023/01/25 10:02:59;;;;;;;;;;;25.00;99.90;;;;;;5090160;28;19919;-65
2023/01/25 10:05:27;;;;;;;;;;;25.00;99.90;;;;;;5091806;28;19918;-63
2023/01/25 10:08:01;;;;;;;;;;;25.10;99.90;;;;;;5090944;28;20370;-63
2023/01/25 10:10:48;;;;;;;;;;;25.00;99.90;;;;;;5089076;28;20376;-65
2023/01/25 10:13:16;;;;;;;;;;;25.00;99.90;;;;;;5071819;28;20120;-64
2023/01/25 10:15:46;;;;;;;;;;;25.00;99.90;;;;;;5072442;28;19908;-65
2023/01/25 10:18:20;;;;;;;;;;;25.00;99.90;;;;;;5072027;28;20015;-65
2023/01/25 10:20:51;;;;;;;;;;;25.10;99.90;;;;;;5074796;28;20372;-65
2023/01/25 10:23:18;;;;;;;;;;;25.10;99.90;;;;;;5092374;28;19969;-63
2023/01/25 10:25:57;;;;;;;;;;;25.10;99.90;;;;;;5091800;28;20360;-65
2023/01/25 10:28:29;;;;;;;;;;;25.00;99.90;;;;;;5091477;28;19919;-67
2023/01/25 10:30:55;;;;;;;;;;;24.90;99.90;;;;;;5090065;28;19958;-65
2023/01/25 10:33:22;;;;;;;;;;;24.80;99.90;;;;;;5090663;28;19966;-64
2023/01/25 10:35:49;;;;;;;;;;;24.80;99.90;;;;;;5089143;28;19920;-67
2023/01/25 10:38:16;;;;;;;;;;;24.80;99.90;;;;;;5085679;28;19957;-66
2023/01/25 10:41:08;;;;;;;;;;;24.80;99.90;;;;;;5091367;28;19944;-66
2023/01/25 10:43:35;;;;;;;;;;;24.80;99.90;;;;;;5081837;28;19927;-65
2023/01/25 10:46:01;;;;;;;;;;;24.80;99.90;;;;;;5093273;28;19912;-65
2023/01/25 10:48:35;;;;;;;;;;;24.80;99.90;;;;;;5095653;28;20380;-65
2023/01/25 10:51:02;;;;;;;;;;;24.80;99.90;;;;;;5075836;28;19974;-65
2023/01/25 10:53:38;;;;;;;;;;;24.80;99.90;;;;;;5081820;28;20361;-65
2023/01/25 10:56:16;;;;;;;;;;;24.80;99.90;;;;;;5095275;28;20369;-65
2023/01/25 10:58:46;;;;;;;;;;;24.80;99.90;;;;;;5093243;28;19963;-64
2023/01/25 11:01:24;;;;;;;;;;;24.80;99.90;;;;;;5093068;28;19958;-64
2023/01/25 11:03:50;;;;;;;;;;;24.70;99.90;;;;;;5095888;28;19916;-65
2023/01/25 11:06:28;;;;;;;;;;;24.60;99.90;;;;;;5083708;28;19913;-64
2023/01/25 11:08:55;;;;;;;;;;;24.60;99.90;;;;;;5075822;28;19963;-67
2023/01/25 11:11:24;;;;;;;;;;;24.60;99.90;;;;;;5074555;28;19955;-65
2023/01/25 11:13:53;;;;;;;;;;;24.60;99.90;;;;;;5075031;28;19995;-65
2023/01/25 11:16:27;;;;;;;;;;;24.50;99.90;;;;;;5075319;28;19916;-66
2023/01/25 11:18:54;;;;;;;;;;;24.50;99.90;;;;;;5073854;28;19908;-65
2023/01/25 11:21:24;;;;;;;;;;;24.40;99.90;;;;;;5075541;28;20384;-66
2023/01/25 11:24:10;;;;;;;;;;;24.40;99.90;;;;;;5095379;28;19968;-67
2023/01/25 11:26:38;;;;;;;;;;;24.40;99.90;;;;;;5073025;28;19919;-67
2023/01/25 11:29:07;;;;;;;;;;;24.40;99.90;;;;;;5074770;28;20115;-66
2023/01/25 11:31:34;;;;;;;;;;;24.30;99.90;;;;;;5084781;28;19919;-67
2023/01/25 11:34:01;;;;;;;;;;;24.30;99.90;;;;;;5093731;28;20003;-64
2023/01/25 11:36:34;;;;;;;;;;;24.30;99.90;;;;;;5093880;28;19912;-64
2023/01/25 11:39:23;;;;;;;;;;;24.20;99.90;;;;;;5093581;28;19908;-66
2023/01/25 11:41:56;;;;;;;;;;;24.30;99.90;;;;;;5094053;28;20356;-64
2023/01/25 11:44:38;;;;;;;;;;;24.30;99.90;;;;;;5094288;28;20003;-66
2023/01/25 11:47:23;;;;;;;;;;;24.30;99.90;;;;;;5074704;28;19947;-65
2023/01/25 11:49:59;;;;;;;;;;;24.30;99.90;;;;;;5074979;28;19995;-64
2023/01/25 11:52:25;;;;;;;;;;;24.30;99.90;;;;;;5074826;28;19908;-65
2023/01/25 11:55:02;;;;;;;;;;;24.20;99.90;;;;;;5074443;28;19947;-64
2023/01/25 11:57:38;;;;;;;;;;;24.30;99.90;;;;;;5074484;28;19956;-66
2023/01/25 12:00:08;;;;;;;;;;;24.30;99.90;;;;;;5074457;28;19939;-65
2023/01/25 12:02:38;;;;;;;;;;;24.30;99.90;;;;;;5074239;28;19917;-67
2023/01/25 12:05:10;;;;;;;;;;;24.30;99.90;;;;;;5074435;28;20432;-65
2023/01/25 12:07:41;;;;;;;;;;;24.30;99.90;;;;;;5074492;28;19920;-66
2023/01/25 12:10:17;;;;;;;;;;;24.40;99.90;;;;;;5074639;28;19909;-66
2023/01/25 12:12:49;;;;;;;;;;;24.30;99.90;;;;;;5079006;28;20288;-66
2023/01/25 12:15:18;;;;;;;;;;;24.40;99.90;;;;;;5095010;28;20333;-67
2023/01/25 12:18:05;;;;;;;;;;;24.30;99.90;;;;;;5094445;28;19919;-66
2023/01/25 12:20:42;;;;;;;;;;;24.20;99.90;;;;;;5094199;28;19919;-64
2023/01/25 12:23:08;;;;;;;;;;;24.30;99.90;;;;;;5094508;28;19916;-66
2023/01/25 12:25:35;;;;;;;;;;;24.30;99.90;;;;;;5094208;28;19912;-66
2023/01/25 12:28:20;;;;;;;;;;;24.30;99.90;;;;;;5094569;28;19944;-64
2023/01/25 12:31:05;;;;;;;;;;;24.20;99.90;;;;;;5094403;28;19908;-66
2023/01/25 12:33:32;;;;;;;;;;;24.20;99.90;;;;;;5094071;28;19908;-65
2023/01/25 12:36:05;;;;;;;;;;;24.10;99.90;;;;;;5093937;28;19916;-67
2023/01/25 12:38:35;;;;;;;;;;;24.10;99.90;;;;;;5093954;28;19908;-65
2023/01/25 12:41:07;;;;;;;;;;;24.10;99.90;;;;;;5091972;28;19912;-67
2023/01/25 12:43:37;;;;;;;;;;;24.10;99.90;;;;;;5094138;28;19916;-67
2023/01/25 12:46:08;;;;;;;;;;;24.10;99.90;;;;;;5094328;28;19915;-67
2023/01/25 12:48:40;;;;;;;;;;;24.00;99.90;;;;;;5094044;28;20340;-65
2023/01/25 12:51:07;;;;;;;;;;;24.10;99.90;;;;;;5093813;28;19909;-65
2023/01/25 12:53:43;;;;;;;;;;;24.10;99.90;;;;;;5094149;28;19999;-65
2023/01/25 12:56:18;;;;;;;;;;;24.10;99.90;;;;;;5093838;28;19966;-65
2023/01/25 12:58:54;;;;;;;;;;;24.10;99.90;;;;;;5092980;28;19912;-65
2023/01/25 13:01:38;;;;;;;;;;;24.10;99.90;;;;;;5092775;28;19919;-64
2023/01/25 13:04:21;;;;;;;;;;;24.10;99.90;;;;;;5093912;28;19973;-64
2023/01/25 13:06:54;;;;;;;;;;;24.10;99.90;;;;;;5093837;28;20343;-65
2023/01/25 13:09:21;;;;;;;;;;;24.20;99.90;;;;;;5092935;28;19957;-64
2023/01/25 13:11:47;;;;;;;;;;;24.20;99.90;;;;;;5093424;28;19952;-64
2023/01/25 13:14:17;;;;;;;;;;;24.10;99.90;;;;;;5093162;28;20376;-65
2023/01/25 13:16:54;;;;;;;;;;;24.10;99.90;;;;;;5093615;28;20357;-66
2023/01/25 13:19:30;;;;;;;;;;;24.10;99.90;;;;;;5093517;28;19915;-66
2023/01/25 13:21:57;;;;;;;;;;;24.10;99.90;;;;;;5093010;28;19912;-66
2023/01/25 13:24:31;;;;;;;;;;;24.10;99.90;;;;;;5093027;28;19920;-65
2023/01/25 13:26:59;;;;;;;;;;;24.10;99.90;;;;;;5092905;28;19908;-66
2023/01/25 13:29:32;;;;;;;;;;;24.00;99.90;;;;;;5093215;28;20003;-66
2023/01/25 13:31:59;;;;;;;;;;;24.00;99.90;;;;;;5093349;28;20241;-66
2023/01/25 13:34:34;;;;;;;;;;;23.90;99.90;;;;;;5092880;28;19930;-65
2023/01/25 13:37:21;;;;;;;;;;;23.90;99.90;;;;;;5092730;28;19912;-66
2023/01/25 13:39:51;;;;;;;;;;;23.90;99.90;;;;;;5092673;28;19995;-64
2023/01/25 13:42:20;;;;;;;;;;;23.90;99.90;;;;;;5092992;28;19918;-66
2023/01/25 13:44:49;;;;;;;;;;;23.90;99.90;;;;;;5093043;28;19908;-65
2023/01/25 13:47:36;;;;;;;;;;;23.90;99.90;;;;;;5092797;28;19978;-66
2023/01/25 13:50:21;;;;;;;;;;;23.90;99.90;;;;;;5093161;28;19951;-66
2023/01/25 13:52:58;;;;;;;;;;;23.90;99.90;;;;;;5093007;28;19908;-66
2023/01/25 13:55:25;;;;;;;;;;;23.90;99.90;;;;;;5092882;28;19969;-66
2023/01/25 13:57:53;;;;;;;;;;;23.90;99.90;;;;;;5092992;28;19909;-66
2023/01/25 14:00:20;;;;;;;;;;;23.80;99.90;;;;;;5092880;28;19912;-66
2023/01/25 14:02:52;;;;;;;;;;;23.70;99.90;;;;;;5091659;28;19916;-66
2023/01/25 14:05:19;;;;;;;;;;;23.70;99.90;;;;;;5092734;28;19908;-65
2023/01/25 14:07:47;;;;;;;;;;;23.70;99.90;;;;;;5092504;28;19939;-65
2023/01/25 14:10:15;;;;;;;;;;;23.60;99.90;;;;;;5092684;28;19908;-66
2023/01/25 14:12:42;;;;;;;;;;;23.60;99.90;;;;;;5092720;28;20464;-67
2023/01/25 14:15:18;;;;;;;;;;;23.50;99.90;;;;;;5092253;28;20315;-66
2023/01/25 14:17:45;;;;;;;;;;;23.50;99.90;;;;;;5092619;28;19918;-65
2023/01/25 14:20:18;;;;;;;;;;;23.60;99.90;;;;;;5091947;28;19915;-65
2023/01/25 14:22:48;;;;;;;;;;;23.40;99.90;;;;;;5092493;28;20292;-65
2023/01/25 14:25:16;;;;;;;;;;;23.40;99.90;;;;;;5092288;28;19916;-66
2023/01/25 14:28:01;;;;;;;;;;;23.40;99.90;;;;;;5092494;28;19953;-66